createdAt,value
2023-02-02T00:00:52.830Z,3.23
2023-02-02T00:03:19.557Z,8.43
2023-02-02T00:05:47.078Z,3.83
2023-02-02T00:08:15.348Z,4.10
2023-02-02T00:10:42.347Z,3.63
2023-02-02T00:13:09.357Z,2.97
2023-02-02T00:15:36.306Z,4.20
2023-02-02T00:18:03.562Z,3.90
2023-02-02T00:20:30.460Z,4.37
2023-02-02T00:22:57.193Z,3.20
2023-02-02T00:25:25.416Z,4.77
2023-02-02T00:27:52.309Z,3.80
2023-02-02T00:30:19.404Z,5.07
2023-02-02T00:32:46.066Z,3.57
2023-02-02T00:35:12.734Z,3.80
2023-02-02T00:37:39.366Z,4.87
2023-02-02T00:40:07.529Z,4.07
2023-02-02T00:42:35.520Z,3.20
2023-02-02T00:45:02.435Z,5.40
2023-02-02T00:47:29.115Z,4.20
2023-02-02T00:49:55.779Z,3.60
2023-02-02T00:52:22.461Z,3.97
2023-02-02T00:54:49.145Z,3.80
2023-02-02T00:57:16.152Z,4.10
2023-02-02T00:59:44.163Z,3.00
2023-02-02T01:02:11.118Z,3.20
2023-02-02T01:04:38.234Z,5.07
2023-02-02T01:07:05.378Z,4.60
2023-02-02T01:09:32.079Z,3.30
2023-02-02T01:11:58.756Z,4.30
2023-02-02T01:14:25.723Z,3.17
2023-02-02T01:16:53.809Z,4.93
2023-02-02T01:19:20.478Z,4.73
2023-02-02T01:21:47.215Z,3.43
2023-02-02T01:24:13.857Z,2.70
2023-02-02T01:26:40.512Z,3.70
2023-02-02T01:29:07.180Z,3.40
2023-02-02T01:31:33.870Z,2.90
2023-02-02T01:34:01.967Z,3.43
2023-02-02T01:36:29.330Z,3.27
2023-02-02T01:38:56.064Z,2.60
2023-02-02T01:41:24.924Z,4.07
2023-02-02T01:43:57.693Z,3.73
2023-02-02T01:46:27.445Z,4.07
2023-02-02T01:48:59.545Z,3.67
2023-02-02T01:51:33.598Z,4.23
2023-02-02T01:54:01.336Z,4.93
2023-02-02T01:56:32.594Z,3.63
2023-02-02T01:59:00.476Z,4.60
2023-02-02T02:01:27.702Z,4.00
2023-02-02T02:03:55.430Z,3.63
2023-02-02T02:06:22.557Z,4.57
2023-02-02T02:08:54.744Z,3.40
2023-02-02T02:11:22.263Z,3.90
2023-02-02T02:13:50.254Z,3.53
2023-02-02T02:16:24.695Z,5.07
2023-02-02T02:19:01.947Z,4.10
2023-02-02T02:21:48.897Z,4.20
2023-02-02T02:24:47.992Z,3.50
2023-02-02T02:27:38.456Z,3.73
2023-02-02T02:30:24.665Z,3.70
2023-02-02T02:32:59.684Z,4.93
2023-02-02T02:35:33.034Z,4.73
2023-02-02T02:38:07.682Z,4.13
2023-02-02T02:40:40.103Z,4.20
2023-02-02T02:43:10.777Z,3.57
2023-02-02T02:45:39.144Z,5.10
2023-02-02T02:48:08.545Z,5.67
2023-02-02T02:50:35.208Z,5.20
2023-02-02T02:53:05.643Z,3.57
2023-02-02T02:55:40.273Z,3.43
2023-02-02T02:58:11.205Z,3.77
2023-02-02T03:00:53.993Z,4.63
2023-02-02T03:03:31.255Z,4.70
2023-02-02T03:06:12.539Z,2.70
2023-02-02T03:08:43.852Z,4.03
2023-02-02T03:11:13.096Z,3.90
2023-02-02T03:13:41.069Z,4.83
2023-02-02T03:16:08.855Z,4.00
2023-02-02T03:18:36.994Z,5.83
2023-02-02T03:21:04.057Z,4.20
2023-02-02T03:23:30.764Z,4.10
2023-02-02T03:25:57.469Z,3.93
2023-02-02T03:28:24.988Z,3.40
2023-02-02T03:30:53.295Z,2.73
2023-02-02T03:33:20.525Z,4.50
2023-02-02T03:35:48.530Z,3.50
2023-02-02T03:38:15.227Z,4.47
2023-02-02T03:40:42.013Z,4.47
2023-02-02T03:43:09.062Z,4.60
2023-02-02T03:45:36.452Z,2.70
2023-02-02T03:48:04.362Z,4.73
2023-02-02T03:50:31.086Z,4.20
2023-02-02T03:52:59.098Z,4.27
2023-02-02T03:55:26.025Z,3.97
2023-02-02T03:57:52.961Z,3.57
2023-02-02T04:00:20.497Z,3.73
2023-02-02T04:02:47.202Z,2.93
2023-02-02T04:05:13.936Z,5.20
2023-02-02T04:07:40.620Z,4.10
2023-02-02T04:10:10.135Z,4.77
2023-02-02T04:12:36.777Z,4.17
2023-02-02T04:15:04.048Z,3.30
2023-02-02T04:17:30.714Z,4.60
2023-02-02T04:19:57.390Z,4.50
2023-02-02T04:22:24.141Z,3.77
2023-02-02T04:24:50.841Z,2.63
2023-02-02T04:27:18.854Z,4.80
2023-02-02T04:29:45.579Z,3.60
2023-02-02T04:32:13.985Z,4.70
2023-02-02T04:34:40.784Z,3.80
2023-02-02T04:37:07.514Z,5.50
2023-02-02T04:39:34.408Z,5.00
2023-02-02T04:42:01.053Z,4.43
2023-02-02T04:44:29.064Z,4.77
2023-02-02T04:46:55.761Z,4.17
2023-02-02T04:49:22.421Z,5.63
2023-02-02T04:51:49.085Z,4.63
2023-02-02T04:54:15.902Z,4.23
2023-02-02T04:56:42.589Z,4.07
2023-02-02T04:59:09.266Z,3.67
2023-02-02T05:01:37.341Z,4.93
2023-02-02T05:04:04.214Z,4.43
2023-02-02T05:06:30.896Z,3.70
2023-02-02T05:08:57.569Z,4.30
2023-02-02T05:11:24.609Z,4.03
2023-02-02T05:13:53.256Z,4.40
2023-02-02T05:16:21.151Z,3.30
2023-02-02T05:18:51.443Z,4.23
2023-02-02T05:21:18.443Z,4.03
2023-02-02T05:23:45.151Z,4.13
2023-02-02T05:26:14.758Z,2.30
2023-02-02T05:28:41.493Z,4.77
2023-02-02T05:31:08.232Z,4.47
2023-02-02T05:33:34.937Z,3.90
2023-02-02T05:36:03.303Z,4.20
2023-02-02T05:38:29.991Z,3.37
2023-02-02T05:40:56.730Z,3.27
2023-02-02T05:43:25.758Z,3.60
2023-02-02T05:45:52.546Z,3.90
2023-02-02T05:48:19.637Z,3.20
2023-02-02T05:50:49.366Z,4.03
2023-02-02T05:53:17.522Z,3.07
2023-02-02T05:55:44.182Z,4.33
2023-02-02T05:58:10.817Z,4.43
2023-02-02T06:00:37.473Z,3.73
2023-02-02T06:03:04.446Z,3.03
2023-02-02T06:05:31.159Z,5.00
2023-02-02T06:07:57.845Z,3.90
2023-02-02T06:10:25.957Z,3.57
2023-02-02T06:12:52.777Z,2.83
2023-02-02T06:15:19.464Z,3.80
2023-02-02T06:17:46.115Z,3.70
2023-02-02T06:20:13.290Z,3.50
2023-02-02T06:22:40.122Z,3.57
2023-02-02T06:25:07.615Z,4.13
2023-02-02T06:27:35.749Z,4.30
2023-02-02T06:30:02.538Z,2.70
2023-02-02T06:32:29.640Z,3.80
2023-02-02T06:34:56.377Z,3.90
2023-02-02T06:37:23.239Z,3.20
2023-02-02T06:39:49.892Z,3.43
2023-02-02T06:42:21.795Z,4.80
2023-02-02T06:44:49.998Z,3.50
2023-02-02T06:47:17.216Z,3.90
2023-02-02T06:49:43.952Z,3.90
2023-02-02T06:52:10.637Z,4.13
2023-02-02T06:54:37.291Z,4.27
2023-02-02T06:57:04.115Z,3.40
2023-02-02T06:59:30.774Z,3.90
2023-02-02T07:01:58.804Z,4.30
2023-02-02T07:04:25.529Z,3.73
2023-02-02T07:06:52.228Z,4.43
2023-02-02T07:09:18.891Z,5.10
2023-02-02T07:11:45.674Z,4.93
2023-02-02T07:14:12.404Z,3.90
2023-02-02T07:16:39.142Z,4.27
2023-02-02T07:19:07.153Z,4.43
2023-02-02T07:21:33.995Z,3.30
2023-02-02T07:24:00.891Z,4.00
2023-02-02T07:26:27.733Z,4.93
2023-02-02T07:28:54.455Z,3.47
2023-02-02T07:31:23.456Z,4.33
2023-02-02T07:33:50.385Z,5.47
2023-02-02T07:36:20.176Z,3.60
2023-02-02T07:38:48.366Z,5.13
2023-02-02T07:41:15.823Z,4.60
2023-02-02T07:43:42.663Z,4.03
2023-02-02T07:46:10.699Z,3.70
2023-02-02T07:48:37.579Z,4.67
2023-02-02T07:51:05.928Z,4.27
2023-02-02T07:53:34.737Z,4.07
2023-02-02T07:56:09.779Z,5.23
2023-02-02T07:58:36.719Z,4.10
2023-02-02T08:01:04.765Z,5.30
2023-02-02T08:03:32.064Z,4.40
2023-02-02T08:05:59.326Z,4.00
2023-02-02T08:08:26.245Z,4.83
2023-02-02T08:10:54.549Z,3.70
2023-02-02T08:13:21.537Z,4.13
2023-02-02T08:15:48.443Z,4.60
2023-02-02T08:18:15.128Z,5.67
2023-02-02T08:20:41.788Z,4.67
2023-02-02T08:23:08.623Z,4.27
2023-02-02T08:25:35.314Z,6.30
2023-02-02T08:28:03.398Z,4.30
2023-02-02T08:30:30.086Z,4.20
2023-02-02T08:32:56.748Z,4.20
2023-02-02T08:35:23.710Z,3.00
2023-02-02T08:37:51.421Z,4.07
2023-02-02T08:40:18.590Z,4.27
2023-02-02T08:42:45.308Z,4.20
2023-02-02T08:46:01.460Z,4.00
2023-02-02T08:48:11.185Z,4.77
2023-02-02T08:50:38.615Z,4.93
2023-02-02T08:53:05.338Z,4.03
2023-02-02T08:55:32.016Z,4.50
2023-02-02T08:57:58.731Z,5.57
2023-02-02T09:00:27.076Z,5.27
2023-02-02T09:02:53.784Z,3.93
2023-02-02T09:05:20.519Z,3.90
2023-02-02T09:07:49.439Z,4.63
2023-02-02T09:10:16.713Z,5.17
2023-02-02T09:12:43.417Z,3.83
2023-02-02T09:15:10.676Z,4.10
2023-02-02T09:17:38.706Z,3.27
2023-02-02T09:20:06.383Z,4.30
2023-02-02T09:22:33.419Z,3.90
2023-02-02T09:25:00.106Z,3.30
2023-02-02T09:27:26.854Z,4.20
2023-02-02T09:29:53.504Z,5.00
2023-02-02T09:32:20.271Z,5.57
2023-02-02T09:34:48.332Z,5.80
2023-02-02T09:37:14.981Z,5.80
2023-02-02T09:39:41.708Z,5.43
2023-02-02T09:42:35.163Z,5.70
2023-02-02T09:45:10.892Z,3.77
2023-02-02T09:47:52.866Z,4.87
2023-02-02T09:50:34.298Z,4.27
2023-02-02T09:53:07.766Z,4.10
2023-02-02T09:55:37.741Z,5.20
2023-02-02T09:58:10.856Z,4.40
2023-02-02T10:00:41.547Z,5.90
2023-02-02T10:03:15.494Z,4.80
2023-02-02T10:05:50.342Z,4.80
2023-02-02T10:08:34.330Z,4.30
2023-02-02T10:11:07.732Z,4.10
2023-02-02T10:13:38.005Z,4.73
2023-02-02T10:16:10.175Z,6.27
2023-02-02T10:18:42.671Z,3.70
2023-02-02T10:21:18.350Z,4.47
2023-02-02T10:23:45.850Z,4.80
2023-02-02T10:26:19.001Z,4.00
2023-02-02T10:29:03.204Z,4.33
2023-02-02T10:31:41.528Z,3.63
2023-02-02T10:34:17.503Z,4.10
2023-02-02T10:36:58.916Z,4.47
2023-02-02T10:39:36.111Z,4.83
2023-02-02T10:42:12.979Z,4.00
2023-02-02T10:44:48.737Z,3.93
2023-02-02T10:47:23.927Z,3.20
2023-02-02T10:50:00.034Z,3.93
2023-02-02T10:52:32.176Z,2.37
2023-02-02T10:55:04.341Z,3.80
2023-02-02T10:57:44.075Z,3.30
2023-02-02T11:00:22.260Z,3.13
2023-02-02T11:02:49.901Z,3.70
2023-02-02T11:05:21.509Z,4.00
2023-02-02T11:07:51.210Z,4.10
2023-02-02T11:10:17.863Z,2.30
2023-02-02T11:12:46.037Z,4.00
2023-02-02T11:15:25.658Z,3.80
2023-02-02T11:17:52.411Z,3.87
2023-02-02T11:20:24.107Z,4.57
2023-02-02T11:23:02.792Z,2.90
2023-02-02T11:25:32.749Z,3.70
2023-02-02T11:28:01.198Z,3.60
2023-02-02T11:30:31.460Z,3.10
2023-02-02T11:32:58.299Z,4.03
2023-02-02T11:35:26.390Z,2.90
2023-02-02T11:38:09.379Z,4.33
2023-02-02T11:40:38.074Z,4.00
2023-02-02T11:43:14.633Z,3.13
2023-02-02T11:45:45.126Z,2.83
2023-02-02T11:48:17.432Z,2.57
2023-02-02T11:50:49.957Z,3.60
2023-02-02T11:53:27.260Z,2.33
2023-02-02T11:55:55.653Z,4.37
2023-02-02T11:58:25.337Z,3.93
2023-02-02T12:00:55.065Z,3.53
2023-02-02T12:03:27.578Z,2.00
2023-02-02T12:05:54.366Z,2.07
2023-02-02T12:08:21.533Z,3.47
2023-02-02T12:10:56.546Z,3.57
2023-02-02T12:13:50.087Z,3.53
2023-02-02T12:16:39.480Z,2.10
2023-02-02T12:19:22.718Z,2.97
2023-02-02T12:21:58.688Z,2.77
2023-02-02T12:24:31.268Z,3.17
2023-02-02T12:27:10.867Z,3.23
2023-02-02T12:29:51.751Z,2.17
2023-02-02T12:32:27.830Z,3.00
2023-02-02T12:35:09.177Z,3.70
2023-02-02T12:37:48.718Z,2.37
2023-02-02T12:40:38.123Z,3.07
2023-02-02T12:43:14.518Z,2.90
2023-02-02T12:46:00.207Z,3.20
2023-02-02T12:48:44.528Z,3.57
2023-02-02T12:51:26.634Z,3.70
2023-02-02T12:54:33.503Z,3.17
2023-02-02T12:57:08.457Z,3.30
2023-02-02T13:00:02.954Z,3.70
2023-02-02T13:02:36.247Z,3.13
2023-02-02T13:05:19.066Z,3.43
2023-02-02T13:07:50.485Z,2.73
2023-02-02T13:10:24.808Z,2.40
2023-02-02T13:12:55.546Z,2.50
2023-02-02T13:15:29.327Z,2.27
2023-02-02T13:17:58.700Z,2.40
2023-02-02T13:20:37.942Z,2.43
2023-02-02T13:23:09.253Z,3.40
2023-02-02T13:25:42.805Z,2.50
2023-02-02T13:28:17.574Z,2.70
2023-02-02T13:30:49.924Z,2.93
2023-02-02T13:33:23.114Z,2.10
2023-02-02T13:35:53.471Z,2.23
2023-02-02T13:38:22.655Z,2.80
2023-02-02T13:40:51.505Z,3.50
2023-02-02T13:43:30.469Z,3.47
2023-02-02T13:46:08.544Z,3.10
2023-02-02T13:48:42.607Z,2.17
2023-02-02T13:51:34.365Z,1.87
2023-02-02T13:54:39.573Z,2.20
2023-02-02T13:57:18.779Z,2.40
2023-02-02T13:59:54.245Z,2.03
2023-02-02T14:02:30.650Z,2.23
2023-02-02T14:05:00.835Z,2.67
2023-02-02T14:07:36.219Z,2.30
2023-02-02T14:10:03.219Z,2.17
2023-02-02T14:12:32.731Z,2.07
2023-02-02T14:15:00.241Z,1.67
2023-02-02T14:17:51.996Z,3.47
2023-02-02T14:20:44.898Z,2.20
2023-02-02T14:23:52.217Z,3.00
2023-02-02T14:26:40.808Z,1.53
2023-02-02T14:29:34.564Z,0.83
2023-02-02T14:32:03.064Z,1.47
2023-02-02T14:34:33.900Z,1.23
2023-02-02T14:37:34.785Z,1.53
2023-02-02T14:40:24.176Z,2.27
2023-02-02T14:43:02.101Z,1.20
2023-02-02T14:45:31.218Z,1.67
2023-02-02T14:48:00.657Z,2.33
2023-02-02T14:50:40.527Z,2.07
2023-02-02T14:53:16.169Z,3.10
2023-02-02T14:55:56.621Z,2.27
2023-02-02T14:58:30.743Z,2.30
2023-02-02T15:01:06.758Z,2.60
2023-02-02T15:03:49.074Z,1.60
2023-02-02T15:06:29.448Z,2.30
2023-02-02T15:09:41.078Z,2.30
2023-02-02T15:12:32.945Z,2.53
2023-02-02T15:15:11.477Z,1.93
2023-02-02T15:17:49.892Z,3.13
2023-02-02T15:20:24.186Z,2.80
2023-02-02T15:22:57.389Z,2.00
2023-02-02T15:25:28.068Z,2.87
2023-02-02T15:27:57.785Z,2.93
2023-02-02T15:30:26.244Z,2.10
2023-02-02T15:32:53.496Z,3.67
2023-02-02T15:35:24.009Z,2.43
2023-02-02T15:37:58.092Z,2.70
2023-02-02T15:40:26.564Z,4.10
2023-02-02T15:42:58.418Z,2.80
2023-02-02T15:45:39.910Z,1.93
2023-02-02T15:48:16.875Z,2.30
2023-02-02T15:50:45.143Z,2.10
2023-02-02T15:53:19.255Z,2.80
2023-02-02T15:55:46.049Z,2.60
2023-02-02T15:58:31.955Z,2.40
2023-02-02T16:01:05.102Z,1.90
2023-02-02T16:03:42.019Z,3.00
2023-02-02T16:06:09.316Z,3.20
2023-02-02T16:08:38.951Z,2.90
2023-02-02T16:11:11.492Z,3.77
2023-02-02T16:13:39.221Z,2.70
2023-02-02T16:16:21.189Z,2.77
2023-02-02T16:18:48.236Z,2.63
2023-02-02T16:21:23.729Z,2.93
2023-02-02T16:23:53.061Z,2.77
2023-02-02T16:26:24.150Z,3.17
2023-02-02T16:28:51.030Z,2.87
2023-02-02T16:31:17.970Z,4.07
2023-02-02T16:33:45.476Z,3.30
2023-02-02T16:36:25.012Z,3.70
2023-02-02T16:38:55.147Z,5.17
2023-02-02T16:41:27.697Z,2.70
2023-02-02T16:43:54.552Z,3.83
2023-02-02T16:46:43.635Z,2.60
2023-02-02T16:49:17.515Z,4.07
2023-02-02T16:51:46.051Z,3.23
2023-02-02T16:54:19.740Z,3.03
2023-02-02T16:56:49.380Z,3.10
2023-02-02T16:59:20.137Z,3.03
2023-02-02T17:01:49.774Z,2.70
2023-02-02T17:04:20.951Z,3.33
2023-02-02T17:06:52.762Z,3.47
2023-02-02T17:09:34.166Z,4.10
2023-02-02T17:12:03.709Z,3.57
2023-02-02T17:14:34.129Z,3.53
2023-02-02T17:17:04.844Z,4.03
2023-02-02T17:19:32.034Z,4.13
2023-02-02T17:22:02.023Z,4.60
2023-02-02T17:24:30.205Z,3.90
2023-02-02T17:26:56.991Z,4.30
2023-02-02T17:29:23.706Z,2.93
2023-02-02T17:31:50.562Z,2.87
2023-02-02T17:34:17.531Z,2.63
2023-02-02T17:36:44.192Z,2.80
2023-02-02T17:39:11.756Z,3.30
2023-02-02T17:41:39.885Z,3.37
2023-02-02T17:44:06.690Z,3.80
2023-02-02T17:46:33.421Z,3.53
2023-02-02T17:49:00.274Z,4.67
2023-02-02T17:51:26.947Z,5.77
2023-02-02T17:53:53.990Z,4.07
2023-02-02T17:56:20.720Z,6.07
2023-02-02T17:58:48.829Z,4.23
2023-02-02T18:01:15.614Z,4.70
2023-02-02T18:03:45.667Z,4.97
2023-02-02T18:06:12.343Z,4.30
2023-02-02T18:08:39.045Z,4.47
2023-02-02T18:11:05.947Z,7.57
2023-02-02T18:13:32.897Z,6.50
2023-02-02T18:16:00.922Z,7.30
2023-02-02T18:18:27.769Z,9.20
2023-02-02T18:20:54.400Z,4.73
2023-02-02T18:23:21.087Z,10.20
2023-02-02T18:25:47.769Z,12.03
2023-02-02T18:28:16.836Z,6.20
2023-02-02T18:30:44.540Z,4.90
2023-02-02T18:33:13.810Z,5.63
2023-02-02T18:35:41.484Z,5.07
2023-02-02T18:38:08.518Z,5.57
2023-02-02T18:40:35.253Z,4.90
2023-02-02T18:43:01.907Z,5.47
2023-02-02T18:45:28.619Z,3.83
2023-02-02T18:47:55.298Z,5.00
2023-02-02T18:50:23.329Z,5.10
2023-02-02T18:52:50.018Z,4.97
2023-02-02T18:55:16.873Z,4.00
2023-02-02T18:57:43.535Z,3.83
2023-02-02T19:00:11.697Z,4.20
2023-02-02T19:02:38.911Z,3.13
2023-02-02T19:05:05.899Z,5.20
2023-02-02T19:07:33.901Z,3.67
2023-02-02T19:10:00.609Z,2.63
2023-02-02T19:12:27.336Z,3.60
2023-02-02T19:14:55.622Z,4.33
2023-02-02T19:17:23.228Z,3.40
2023-02-02T19:19:50.141Z,3.13
2023-02-02T19:22:19.479Z,2.63
2023-02-02T19:24:48.311Z,3.27
2023-02-02T19:27:17.465Z,3.00
2023-02-02T19:29:45.009Z,3.47
2023-02-02T19:32:15.222Z,2.37
2023-02-02T19:34:42.076Z,3.60
2023-02-02T19:37:22.927Z,3.73
2023-02-02T19:39:53.496Z,3.80
2023-02-02T19:42:20.163Z,3.40
2023-02-02T19:44:46.920Z,3.90
2023-02-02T19:47:21.019Z,3.63
2023-02-02T19:49:47.731Z,5.10
2023-02-02T19:52:18.788Z,3.37
2023-02-02T19:54:47.062Z,4.47
2023-02-02T19:57:23.393Z,4.27
2023-02-02T19:59:51.282Z,3.10
2023-02-02T20:02:29.432Z,3.00
2023-02-02T20:05:01.838Z,3.80
2023-02-02T20:07:29.116Z,4.87
2023-02-02T20:10:06.038Z,3.70
2023-02-02T20:12:34.032Z,4.63
2023-02-02T20:15:00.679Z,4.87
2023-02-02T20:17:29.875Z,4.77
2023-02-02T20:19:56.565Z,4.90
2023-02-02T20:22:26.054Z,3.80
2023-02-02T20:24:53.451Z,4.50
2023-02-02T20:27:22.403Z,3.37
2023-02-02T20:29:52.933Z,4.13
2023-02-02T20:32:23.256Z,2.70
2023-02-02T20:34:51.093Z,4.17
2023-02-02T20:37:22.794Z,3.60
2023-02-02T20:39:54.162Z,3.87
2023-02-02T20:42:21.373Z,4.30
2023-02-02T20:44:49.641Z,3.37
2023-02-02T20:47:16.554Z,4.20
2023-02-02T20:49:43.961Z,4.27
2023-02-02T20:52:13.839Z,4.60
2023-02-02T20:54:40.691Z,4.23
2023-02-02T20:57:07.400Z,4.23
2023-02-02T20:59:34.141Z,5.13
2023-02-02T21:02:02.288Z,5.20
2023-02-02T21:04:29.029Z,2.80
2023-02-02T21:06:55.693Z,4.57
2023-02-02T21:09:22.452Z,4.77
2023-02-02T21:11:49.185Z,3.50
2023-02-02T21:14:16.030Z,3.03
2023-02-02T21:16:43.092Z,2.80
2023-02-02T21:19:11.111Z,4.13
2023-02-02T21:21:37.871Z,5.43
2023-02-02T21:24:05.138Z,3.33
2023-02-02T21:26:31.832Z,3.47
2023-02-02T21:28:58.577Z,3.57
2023-02-02T21:31:25.928Z,3.43
2023-02-02T21:33:52.809Z,3.37
2023-02-02T21:36:30.308Z,3.07
2023-02-02T21:39:02.570Z,3.10
2023-02-02T21:41:32.018Z,2.97
2023-02-02T21:43:59.271Z,2.50
2023-02-02T21:46:32.714Z,2.70
2023-02-02T21:49:00.641Z,3.07
2023-02-02T21:51:33.918Z,3.30
2023-02-02T21:54:14.268Z,2.10
2023-02-02T21:56:42.044Z,3.50
2023-02-02T21:59:12.623Z,3.10
2023-02-02T22:01:40.218Z,2.80
2023-02-02T22:04:19.671Z,2.93
2023-02-02T22:06:50.320Z,2.97
2023-02-02T22:09:20.593Z,2.93
2023-02-02T22:11:50.341Z,2.57
2023-02-02T22:14:20.083Z,2.67
2023-02-02T22:16:49.354Z,3.87
2023-02-02T22:19:25.467Z,2.13
2023-02-02T22:21:54.150Z,2.87
2023-02-02T22:24:21.115Z,2.43
2023-02-02T22:26:47.973Z,2.57
2023-02-02T22:29:17.999Z,3.20
2023-02-02T22:31:44.644Z,3.23
2023-02-02T22:34:11.398Z,2.63
2023-02-02T22:36:38.085Z,2.20
2023-02-02T22:39:06.081Z,2.27
2023-02-02T22:41:32.883Z,2.27
2023-02-02T22:43:59.654Z,2.50
2023-02-02T22:46:26.330Z,2.30
2023-02-02T22:48:52.996Z,1.67
2023-02-02T22:51:19.670Z,1.70
2023-02-02T22:53:46.328Z,1.77
2023-02-02T22:56:14.353Z,1.87
2023-02-02T22:58:41.197Z,1.50
2023-02-02T23:01:07.898Z,1.80
2023-02-02T23:03:34.715Z,1.37
2023-02-02T23:06:01.422Z,1.23
2023-02-02T23:08:28.103Z,1.07
2023-02-02T23:10:54.904Z,1.27
2023-02-02T23:13:22.975Z,1.60
2023-02-02T23:15:49.776Z,1.00
2023-02-02T23:18:16.595Z,1.43
2023-02-02T23:20:43.253Z,1.10
2023-02-02T23:23:09.962Z,1.17
2023-02-02T23:25:36.695Z,1.37
2023-02-02T23:28:03.501Z,0.90
2023-02-02T23:30:31.677Z,1.60
2023-02-02T23:32:58.434Z,1.40
2023-02-02T23:35:25.111Z,1.27
2023-02-02T23:37:51.772Z,1.10
2023-02-02T23:40:18.921Z,1.20
2023-02-02T23:42:45.620Z,1.20
2023-02-02T23:45:13.170Z,1.10
2023-02-02T23:47:42.615Z,1.13
2023-02-02T23:50:10.970Z,1.00
2023-02-02T23:52:38.191Z,1.00
2023-02-02T23:55:06.034Z,0.80
2023-02-02T23:57:32.935Z,1.97
2023-02-02T23:59:59.640Z,0.87
